sensor_id;sensor_type;location;lat;lon;timestamp;P1;durP1;ratioP1;P2;durP2;ratioP2
920;SDS011;447;51.332;6.778;2022-09-03T00:00:40;1.90;;;1.70;;
920;SDS011;447;51.332;6.778;2022-09-03T00:03:25;2.50;;;1.90;;
920;SDS011;447;51.332;6.778;2022-09-03T00:13:41;2.13;;;1.97;;
920;SDS011;447;51.332;6.778;2022-09-03T00:16:16;2.03;;;1.70;;
920;SDS011;447;51.332;6.778;2022-09-03T00:18:56;1.80;;;1.70;;
920;SDS011;447;51.332;6.778;2022-09-03T00:21:37;1.83;;;1.73;;
920;SDS011;447;51.332;6.778;2022-09-03T00:24:17;2.03;;;1.70;;
920;SDS011;447;51.332;6.778;2022-09-03T00:26:56;2.90;;;1.90;;
920;SDS011;447;51.332;6.778;2022-09-03T00:29:36;2.00;;;1.73;;
920;SDS011;447;51.332;6.778;2022-09-03T00:32:16;2.00;;;1.80;;
920;SDS011;447;51.332;6.778;2022-09-03T00:34:52;2.30;;;2.10;;
920;SDS011;447;51.332;6.778;2022-09-03T00:37:31;2.77;;;1.50;;
920;SDS011;447;51.332;6.778;2022-09-03T00:39:59;3.13;;;2.10;;
920;SDS011;447;51.332;6.778;2022-09-03T00:42:33;2.50;;;1.90;;
920;SDS011;447;51.332;6.778;2022-09-03T00:45:30;2.50;;;2.30;;
920;SDS011;447;51.332;6.778;2022-09-03T00:50:42;2.00;;;1.80;;
920;SDS011;447;51.332;6.778;2022-09-03T01:01:14;2.80;;;2.00;;
920;SDS011;447;51.332;6.778;2022-09-03T01:08:53;1.60;;;1.50;;
920;SDS011;447;51.332;6.778;2022-09-03T01:16:57;2.53;;;1.60;;
920;SDS011;447;51.332;6.778;2022-09-03T01:25:14;2.27;;;1.80;;
920;SDS011;447;51.332;6.778;2022-09-03T01:30:41;1.80;;;1.70;;
920;SDS011;447;51.332;6.778;2022-09-03T01:41:55;1.60;;;1.50;;
920;SDS011;447;51.332;6.778;2022-09-03T01:48:09;1.93;;;1.83;;
920;SDS011;447;51.332;6.778;2022-09-03T01:50:53;2.40;;;1.70;;
920;SDS011;447;51.332;6.778;2022-09-03T02:02:02;2.13;;;1.93;;
920;SDS011;447;51.332;6.778;2022-09-03T02:04:55;1.60;;;1.50;;
920;SDS011;447;51.332;6.778;2022-09-03T02:07:26;2.67;;;1.60;;
920;SDS011;447;51.332;6.778;2022-09-03T02:09:59;1.83;;;1.47;;
920;SDS011;447;51.332;6.778;2022-09-03T02:12:30;2.70;;;1.70;;
920;SDS011;447;51.332;6.778;2022-09-03T02:15:04;1.80;;;1.53;;
920;SDS011;447;51.332;6.778;2022-09-03T02:17:34;2.53;;;1.70;;
920;SDS011;447;51.332;6.778;2022-09-03T02:20:03;1.57;;;1.27;;
920;SDS011;447;51.332;6.778;2022-09-03T02:22:33;2.30;;;1.70;;
920;SDS011;447;51.332;6.778;2022-09-03T02:25:02;1.90;;;1.67;;
920;SDS011;447;51.332;6.778;2022-09-03T02:27:28;1.63;;;1.53;;
920;SDS011;447;51.332;6.778;2022-09-03T02:29:55;3.83;;;1.77;;
920;SDS011;447;51.332;6.778;2022-09-03T02:32:22;2.27;;;1.50;;
920;SDS011;447;51.332;6.778;2022-09-03T02:34:51;5.00;;;1.40;;
920;SDS011;447;51.332;6.778;2022-09-03T02:37:21;2.13;;;1.80;;
920;SDS011;447;51.332;6.778;2022-09-03T02:39:53;2.23;;;1.87;;
920;SDS011;447;51.332;6.778;2022-09-03T02:42:19;2.83;;;1.87;;
920;SDS011;447;51.332;6.778;2022-09-03T02:44:54;3.67;;;1.50;;
920;SDS011;447;51.332;6.778;2022-09-03T02:47:27;1.50;;;1.33;;
920;SDS011;447;51.332;6.778;2022-09-03T02:49:58;4.97;;;1.70;;
920;SDS011;447;51.332;6.778;2022-09-03T02:52:26;1.47;;;1.37;;
920;SDS011;447;51.332;6.778;2022-09-03T02:54:52;1.50;;;1.40;;
920;SDS011;447;51.332;6.778;2022-09-03T02:57:21;1.70;;;1.40;;
920;SDS011;447;51.332;6.778;2022-09-03T02:59:47;1.77;;;1.67;;
920;SDS011;447;51.332;6.778;2022-09-03T03:02:13;1.93;;;1.43;;
920;SDS011;447;51.332;6.778;2022-09-03T03:04:41;1.80;;;1.50;;
920;SDS011;447;51.332;6.778;2022-09-03T03:07:09;1.53;;;1.43;;
920;SDS011;447;51.332;6.778;2022-09-03T03:09:35;1.77;;;1.60;;
920;SDS011;447;51.332;6.778;2022-09-03T03:12:01;2.10;;;1.93;;
920;SDS011;447;51.332;6.778;2022-09-03T03:14:32;3.33;;;1.67;;
920;SDS011;447;51.332;6.778;2022-09-03T03:16:58;1.73;;;1.30;;
920;SDS011;447;51.332;6.778;2022-09-03T03:19:24;1.50;;;1.33;;
920;SDS011;447;51.332;6.778;2022-09-03T03:21:55;1.50;;;1.40;;
920;SDS011;447;51.332;6.778;2022-09-03T03:24:26;1.50;;;1.40;;
920;SDS011;447;51.332;6.778;2022-09-03T03:26:54;1.80;;;1.70;;
920;SDS011;447;51.332;6.778;2022-09-03T03:29:22;1.97;;;1.73;;
920;SDS011;447;51.332;6.778;2022-09-03T03:31:53;1.90;;;1.60;;
920;SDS011;447;51.332;6.778;2022-09-03T03:34:24;1.63;;;1.53;;
920;SDS011;447;51.332;6.778;2022-09-03T03:36:50;1.60;;;1.50;;
920;SDS011;447;51.332;6.778;2022-09-03T03:39:18;1.60;;;1.30;;
920;SDS011;447;51.332;6.778;2022-09-03T03:41:48;1.50;;;1.40;;
920;SDS011;447;51.332;6.778;2022-09-03T03:44:16;1.70;;;1.40;;
920;SDS011;447;51.332;6.778;2022-09-03T03:46:44;1.53;;;1.43;;
920;SDS011;447;51.332;6.778;2022-09-03T03:49:11;3.30;;;1.57;;
920;SDS011;447;51.332;6.778;2022-09-03T03:51:37;1.80;;;1.50;;
920;SDS011;447;51.332;6.778;2022-09-03T03:54:07;1.70;;;1.60;;
920;SDS011;447;51.332;6.778;2022-09-03T03:56:34;1.60;;;1.30;;
920;SDS011;447;51.332;6.778;2022-09-03T03:59:00;2.03;;;1.50;;
920;SDS011;447;51.332;6.778;2022-09-03T04:01:27;3.10;;;1.70;;
920;SDS011;447;51.332;6.778;2022-09-03T04:03:54;1.90;;;1.50;;
920;SDS011;447;51.332;6.778;2022-09-03T04:06:22;1.60;;;1.50;;
920;SDS011;447;51.332;6.778;2022-09-03T04:08:48;2.37;;;1.80;;
920;SDS011;447;51.332;6.778;2022-09-03T04:11:18;1.90;;;1.60;;
920;SDS011;447;51.332;6.778;2022-09-03T04:13:48;2.40;;;1.50;;
920;SDS011;447;51.332;6.778;2022-09-03T04:16:22;1.67;;;1.57;;
920;SDS011;447;51.332;6.778;2022-09-03T04:18:53;1.80;;;1.70;;
920;SDS011;447;51.332;6.778;2022-09-03T04:21:26;2.70;;;1.60;;
920;SDS011;447;51.332;6.778;2022-09-03T04:23:53;1.70;;;1.43;;
920;SDS011;447;51.332;6.778;2022-09-03T04:26:25;1.50;;;1.40;;
920;SDS011;447;51.332;6.778;2022-09-03T04:28:56;1.70;;;1.60;;
920;SDS011;447;51.332;6.778;2022-09-03T04:31:23;1.73;;;1.50;;
920;SDS011;447;51.332;6.778;2022-09-03T04:33:51;2.07;;;1.57;;
920;SDS011;447;51.332;6.778;2022-09-03T04:36:23;2.73;;;1.60;;
920;SDS011;447;51.332;6.778;2022-09-03T04:38:53;1.73;;;1.50;;
920;SDS011;447;51.332;6.778;2022-09-03T04:41:26;1.47;;;1.37;;
920;SDS011;447;51.332;6.778;2022-09-03T04:43:57;1.83;;;1.73;;
920;SDS011;447;51.332;6.778;2022-09-03T04:46:28;2.10;;;1.47;;
920;SDS011;447;51.332;6.778;2022-09-03T04:48:57;2.57;;;1.70;;
920;SDS011;447;51.332;6.778;2022-09-03T04:51:24;1.80;;;1.70;;
920;SDS011;447;51.332;6.778;2022-09-03T04:53:57;1.80;;;1.70;;
920;SDS011;447;51.332;6.778;2022-09-03T04:56:28;1.50;;;1.40;;
920;SDS011;447;51.332;6.778;2022-09-03T04:58:57;1.87;;;1.77;;
920;SDS011;447;51.332;6.778;2022-09-03T05:01:26;2.00;;;1.73;;
920;SDS011;447;51.332;6.778;2022-09-03T05:03:56;1.80;;;1.47;;
920;SDS011;447;51.332;6.778;2022-09-03T05:06:22;2.40;;;1.90;;
920;SDS011;447;51.332;6.778;2022-09-03T05:08:54;2.00;;;1.60;;
920;SDS011;447;51.332;6.778;2022-09-03T05:11:21;1.80;;;1.70;;
920;SDS011;447;51.332;6.778;2022-09-03T05:13:49;1.63;;;1.47;;
920;SDS011;447;51.332;6.778;2022-09-03T05:16:18;1.93;;;1.63;;
920;SDS011;447;51.332;6.778;2022-09-03T05:18:50;2.90;;;1.83;;
920;SDS011;447;51.332;6.778;2022-09-03T05:21:22;1.63;;;1.53;;
920;SDS011;447;51.332;6.778;2022-09-03T05:23:49;1.90;;;1.80;;
920;SDS011;447;51.332;6.778;2022-09-03T05:26:23;3.00;;;1.90;;
920;SDS011;447;51.332;6.778;2022-09-03T05:28:55;1.93;;;1.60;;
920;SDS011;447;51.332;6.778;2022-09-03T05:31:26;2.13;;;1.77;;
920;SDS011;447;51.332;6.778;2022-09-03T05:33:58;1.60;;;1.40;;
920;SDS011;447;51.332;6.778;2022-09-03T05:36:26;1.70;;;1.60;;
920;SDS011;447;51.332;6.778;2022-09-03T05:38:55;1.80;;;1.60;;
920;SDS011;447;51.332;6.778;2022-09-03T05:41:22;2.00;;;1.80;;
920;SDS011;447;51.332;6.778;2022-09-03T05:43:49;1.73;;;1.50;;
920;SDS011;447;51.332;6.778;2022-09-03T05:46:22;2.30;;;1.73;;
920;SDS011;447;51.332;6.778;2022-09-03T05:48:56;1.90;;;1.70;;
920;SDS011;447;51.332;6.778;2022-09-03T05:51:33;1.70;;;1.60;;
920;SDS011;447;51.332;6.778;2022-09-03T05:54:02;1.70;;;1.40;;
920;SDS011;447;51.332;6.778;2022-09-03T05:56:30;3.00;;;1.70;;
920;SDS011;447;51.332;6.778;2022-09-03T05:59:00;1.70;;;1.60;;
920;SDS011;447;51.332;6.778;2022-09-03T06:01:30;2.13;;;1.63;;
920;SDS011;447;51.332;6.778;2022-09-03T06:06:29;1.87;;;1.60;;
920;SDS011;447;51.332;6.778;2022-09-03T06:09:18;2.87;;;1.80;;
920;SDS011;447;51.332;6.778;2022-09-03T06:11:48;4.73;;;1.70;;
920;SDS011;447;51.332;6.778;2022-09-03T06:14:14;1.60;;;1.50;;
920;SDS011;447;51.332;6.778;2022-09-03T06:16:46;2.80;;;2.33;;
920;SDS011;447;51.332;6.778;2022-09-03T06:19:17;1.73;;;1.63;;
920;SDS011;447;51.332;6.778;2022-09-03T06:21:47;2.10;;;1.80;;
920;SDS011;447;51.332;6.778;2022-09-03T06:24:16;2.37;;;1.60;;
920;SDS011;447;51.332;6.778;2022-09-03T06:26:51;3.20;;;1.57;;
920;SDS011;447;51.332;6.778;2022-09-03T06:29:20;2.60;;;1.73;;
920;SDS011;447;51.332;6.778;2022-09-03T06:31:47;2.03;;;1.80;;
920;SDS011;447;51.332;6.778;2022-09-03T06:34:18;2.70;;;2.30;;
920;SDS011;447;51.332;6.778;2022-09-03T06:36:44;2.10;;;1.60;;
920;SDS011;447;51.332;6.778;2022-09-03T06:39:10;1.80;;;1.33;;
920;SDS011;447;51.332;6.778;2022-09-03T06:41:39;2.60;;;1.30;;
920;SDS011;447;51.332;6.778;2022-09-03T06:44:07;2.60;;;1.63;;
920;SDS011;447;51.332;6.778;2022-09-03T06:46:37;2.90;;;1.60;;
920;SDS011;447;51.332;6.778;2022-09-03T06:49:06;1.70;;;1.40;;
920;SDS011;447;51.332;6.778;2022-09-03T06:51:33;2.17;;;1.90;;
920;SDS011;447;51.332;6.778;2022-09-03T06:54:03;2.83;;;1.73;;
920;SDS011;447;51.332;6.778;2022-09-03T06:56:32;1.97;;;1.77;;
920;SDS011;447;51.332;6.778;2022-09-03T06:59:05;1.67;;;1.57;;
920;SDS011;447;51.332;6.778;2022-09-03T07:01:39;3.13;;;1.87;;
920;SDS011;447;51.332;6.778;2022-09-03T07:04:06;2.33;;;1.60;;
920;SDS011;447;51.332;6.778;2022-09-03T07:06:36;1.93;;;1.80;;
920;SDS011;447;51.332;6.778;2022-09-03T07:09:07;1.60;;;1.33;;
920;SDS011;447;51.332;6.778;2022-09-03T07:11:36;2.60;;;1.80;;
920;SDS011;447;51.332;6.778;2022-09-03T07:14:10;2.93;;;2.10;;
920;SDS011;447;51.332;6.778;2022-09-03T07:16:40;2.40;;;1.80;;
920;SDS011;447;51.332;6.778;2022-09-03T07:19:13;1.70;;;1.53;;
920;SDS011;447;51.332;6.778;2022-09-03T07:21:40;1.80;;;1.67;;
920;SDS011;447;51.332;6.778;2022-09-03T07:24:09;1.70;;;1.60;;
920;SDS011;447;51.332;6.778;2022-09-03T07:26:36;1.60;;;1.50;;
920;SDS011;447;51.332;6.778;2022-09-03T07:29:07;2.00;;;1.57;;
920;SDS011;447;51.332;6.778;2022-09-03T07:31:39;1.50;;;1.40;;
920;SDS011;447;51.332;6.778;2022-09-03T07:34:09;1.93;;;1.80;;
920;SDS011;447;51.332;6.778;2022-09-03T07:39:06;2.60;;;2.40;;
920;SDS011;447;51.332;6.778;2022-09-03T07:41:34;1.83;;;1.60;;
920;SDS011;447;51.332;6.778;2022-09-03T07:44:01;3.13;;;2.00;;
920;SDS011;447;51.332;6.778;2022-09-03T07:46:34;1.97;;;1.77;;
920;SDS011;447;51.332;6.778;2022-09-03T07:49:04;1.77;;;1.67;;
920;SDS011;447;51.332;6.778;2022-09-03T07:51:31;1.93;;;1.60;;
920;SDS011;447;51.332;6.778;2022-09-03T07:54:06;1.70;;;1.60;;
920;SDS011;447;51.332;6.778;2022-09-03T07:56:36;2.30;;;1.87;;
920;SDS011;447;51.332;6.778;2022-09-03T07:59:03;3.30;;;1.97;;
920;SDS011;447;51.332;6.778;2022-09-03T08:01:30;1.40;;;1.30;;
920;SDS011;447;51.332;6.778;2022-09-03T08:03:57;2.00;;;1.80;;
920;SDS011;447;51.332;6.778;2022-09-03T08:06:27;1.80;;;1.70;;
920;SDS011;447;51.332;6.778;2022-09-03T08:08:58;1.80;;;1.70;;
920;SDS011;447;51.332;6.778;2022-09-03T08:11:32;1.83;;;1.70;;
920;SDS011;447;51.332;6.778;2022-09-03T08:14:02;3.20;;;1.80;;
920;SDS011;447;51.332;6.778;2022-09-03T08:16:36;2.40;;;1.83;;
920;SDS011;447;51.332;6.778;2022-09-03T08:19:07;1.60;;;1.50;;
920;SDS011;447;51.332;6.778;2022-09-03T08:21:33;3.20;;;1.80;;
920;SDS011;447;51.332;6.778;2022-09-03T08:24:00;1.80;;;1.70;;
920;SDS011;447;51.332;6.778;2022-09-03T08:26:29;1.70;;;1.60;;
920;SDS011;447;51.332;6.778;2022-09-03T08:28:58;2.57;;;1.97;;
920;SDS011;447;51.332;6.778;2022-09-03T08:31:25;1.77;;;1.67;;
920;SDS011;447;51.332;6.778;2022-09-03T08:33:52;2.17;;;1.90;;
920;SDS011;447;51.332;6.778;2022-09-03T08:36:23;1.80;;;1.70;;
920;SDS011;447;51.332;6.778;2022-09-03T08:38:57;1.80;;;1.70;;
920;SDS011;447;51.332;6.778;2022-09-03T08:50:09;2.00;;;1.80;;
920;SDS011;447;51.332;6.778;2022-09-03T08:52:47;2.10;;;2.00;;
920;SDS011;447;51.332;6.778;2022-09-03T08:58:04;2.00;;;1.83;;
920;SDS011;447;51.332;6.778;2022-09-03T09:01:19;1.73;;;1.63;;
920;SDS011;447;51.332;6.778;2022-09-03T09:09:26;1.80;;;1.70;;
920;SDS011;447;51.332;6.778;2022-09-03T09:22:48;2.53;;;2.10;;
920;SDS011;447;51.332;6.778;2022-09-03T09:25:20;2.30;;;2.10;;
920;SDS011;447;51.332;6.778;2022-09-03T09:30:29;2.00;;;1.80;;
920;SDS011;447;51.332;6.778;2022-09-03T09:32:58;4.50;;;1.93;;
920;SDS011;447;51.332;6.778;2022-09-03T09:35:27;2.30;;;1.80;;
920;SDS011;447;51.332;6.778;2022-09-03T09:37:54;2.10;;;1.90;;
920;SDS011;447;51.332;6.778;2022-09-03T09:40:36;2.60;;;1.67;;
920;SDS011;447;51.332;6.778;2022-09-03T09:43:16;2.07;;;1.80;;
920;SDS011;447;51.332;6.778;2022-09-03T09:45:51;2.03;;;1.93;;
920;SDS011;447;51.332;6.778;2022-09-03T09:48:22;2.13;;;1.63;;
920;SDS011;447;51.332;6.778;2022-09-03T09:53:38;1.93;;;1.83;;
920;SDS011;447;51.332;6.778;2022-09-03T09:56:05;2.10;;;1.90;;
920;SDS011;447;51.332;6.778;2022-09-03T09:58:32;2.50;;;1.73;;
920;SDS011;447;51.332;6.778;2022-09-03T10:01:00;2.40;;;1.90;;
920;SDS011;447;51.332;6.778;2022-09-03T10:03:35;3.40;;;2.00;;
920;SDS011;447;51.332;6.778;2022-09-03T10:06:05;2.10;;;1.90;;
920;SDS011;447;51.332;6.778;2022-09-03T10:09:06;2.07;;;1.87;;
920;SDS011;447;51.332;6.778;2022-09-03T10:12:21;3.67;;;1.90;;
920;SDS011;447;51.332;6.778;2022-09-03T10:15:08;1.90;;;1.80;;
920;SDS011;447;51.332;6.778;2022-09-03T10:20:56;2.00;;;1.90;;
920;SDS011;447;51.332;6.778;2022-09-03T10:23:26;2.23;;;2.03;;
920;SDS011;447;51.332;6.778;2022-09-03T10:26:06;2.50;;;2.10;;
920;SDS011;447;51.332;6.778;2022-09-03T10:28:37;1.77;;;1.67;;
920;SDS011;447;51.332;6.778;2022-09-03T10:31:15;1.63;;;1.53;;
920;SDS011;447;51.332;6.778;2022-09-03T10:37:06;3.43;;;2.17;;
920;SDS011;447;51.332;6.778;2022-09-03T10:48:01;2.33;;;2.00;;
920;SDS011;447;51.332;6.778;2022-09-03T10:56:10;2.20;;;2.00;;
920;SDS011;447;51.332;6.778;2022-09-03T10:58:54;3.70;;;2.33;;
920;SDS011;447;51.332;6.778;2022-09-03T11:01:36;2.27;;;2.17;;
920;SDS011;447;51.332;6.778;2022-09-03T11:06:54;2.20;;;2.00;;
920;SDS011;447;51.332;6.778;2022-09-03T11:09:35;2.40;;;2.20;;
920;SDS011;447;51.332;6.778;2022-09-03T11:12:25;2.50;;;2.30;;
920;SDS011;447;51.332;6.778;2022-09-03T11:15:05;2.77;;;2.57;;
920;SDS011;447;51.332;6.778;2022-09-03T11:17:39;2.10;;;2.00;;
920;SDS011;447;51.332;6.778;2022-09-03T11:20:46;2.60;;;2.40;;
920;SDS011;447;51.332;6.778;2022-09-03T11:23:19;2.43;;;2.27;;
920;SDS011;447;51.332;6.778;2022-09-03T11:25:50;3.90;;;2.60;;
920;SDS011;447;51.332;6.778;2022-09-03T11:33:28;2.63;;;2.07;;
920;SDS011;447;51.332;6.778;2022-09-03T11:36:00;2.83;;;2.27;;
920;SDS011;447;51.332;6.778;2022-09-03T11:38:32;2.60;;;2.40;;
920;SDS011;447;51.332;6.778;2022-09-03T11:43:39;2.60;;;2.30;;
920;SDS011;447;51.332;6.778;2022-09-03T11:46:10;2.70;;;2.47;;
920;SDS011;447;51.332;6.778;2022-09-03T11:48:49;2.60;;;2.40;;
920;SDS011;447;51.332;6.778;2022-09-03T11:51:32;2.90;;;2.70;;
920;SDS011;447;51.332;6.778;2022-09-03T11:54:05;3.13;;;2.30;;
920;SDS011;447;51.332;6.778;2022-09-03T11:56:41;2.57;;;2.47;;
920;SDS011;447;51.332;6.778;2022-09-03T12:01:42;2.17;;;2.07;;
920;SDS011;447;51.332;6.778;2022-09-03T12:15:29;2.87;;;2.60;;
920;SDS011;447;51.332;6.778;2022-09-03T12:18:02;2.70;;;2.50;;
920;SDS011;447;51.332;6.778;2022-09-03T12:20:59;2.80;;;2.60;;
920;SDS011;447;51.332;6.778;2022-09-03T12:26:08;3.30;;;2.37;;
920;SDS011;447;51.332;6.778;2022-09-03T12:28:42;2.53;;;2.33;;
920;SDS011;447;51.332;6.778;2022-09-03T12:34:00;2.60;;;2.30;;
920;SDS011;447;51.332;6.778;2022-09-03T12:36:39;3.70;;;2.70;;
920;SDS011;447;51.332;6.778;2022-09-03T12:42:14;2.63;;;2.43;;
920;SDS011;447;51.332;6.778;2022-09-03T12:47:06;2.60;;;2.40;;
920;SDS011;447;51.332;6.778;2022-09-03T12:49:46;3.80;;;2.57;;
920;SDS011;447;51.332;6.778;2022-09-03T12:52:31;2.60;;;2.40;;
920;SDS011;447;51.332;6.778;2022-09-03T12:57:56;3.60;;;2.90;;
920;SDS011;447;51.332;6.778;2022-09-03T13:00:33;3.23;;;2.53;;
920;SDS011;447;51.332;6.778;2022-09-03T13:03:04;2.83;;;2.63;;
920;SDS011;447;51.332;6.778;2022-09-03T13:05:53;3.10;;;2.40;;
920;SDS011;447;51.332;6.778;2022-09-03T13:08:31;2.57;;;2.37;;
920;SDS011;447;51.332;6.778;2022-09-03T13:11:06;3.07;;;2.77;;
920;SDS011;447;51.332;6.778;2022-09-03T13:13:35;4.20;;;2.60;;
920;SDS011;447;51.332;6.778;2022-09-03T13:30:10;2.77;;;2.57;;
920;SDS011;447;51.332;6.778;2022-09-03T13:32:43;4.13;;;2.67;;
920;SDS011;447;51.332;6.778;2022-09-03T13:40:57;2.90;;;2.70;;
920;SDS011;447;51.332;6.778;2022-09-03T13:43:27;3.50;;;3.20;;
920;SDS011;447;51.332;6.778;2022-09-03T13:46:19;3.53;;;2.83;;
920;SDS011;447;51.332;6.778;2022-09-03T13:48:46;4.00;;;3.00;;
920;SDS011;447;51.332;6.778;2022-09-03T13:51:38;3.17;;;2.87;;
920;SDS011;447;51.332;6.778;2022-09-03T13:56:52;3.83;;;3.17;;
920;SDS011;447;51.332;6.778;2022-09-03T14:04:57;2.73;;;2.53;;
920;SDS011;447;51.332;6.778;2022-09-03T14:16:06;3.30;;;3.00;;
920;SDS011;447;51.332;6.778;2022-09-03T14:18:51;3.90;;;3.60;;
920;SDS011;447;51.332;6.778;2022-09-03T14:21:22;3.40;;;3.10;;
920;SDS011;447;51.332;6.778;2022-09-03T14:26:59;3.20;;;3.00;;
920;SDS011;447;51.332;6.778;2022-09-03T14:29:31;3.13;;;2.93;;
920;SDS011;447;51.332;6.778;2022-09-03T14:35:05;3.30;;;3.00;;
920;SDS011;447;51.332;6.778;2022-09-03T14:38:03;3.40;;;3.10;;
920;SDS011;447;51.332;6.778;2022-09-03T14:40:41;3.03;;;2.73;;
920;SDS011;447;51.332;6.778;2022-09-03T14:51:30;3.03;;;2.73;;
920;SDS011;447;51.332;6.778;2022-09-03T14:54:13;3.13;;;2.93;;
920;SDS011;447;51.332;6.778;2022-09-03T15:05:09;6.23;;;3.30;;
920;SDS011;447;51.332;6.778;2022-09-03T15:07:42;3.40;;;3.20;;
920;SDS011;447;51.332;6.778;2022-09-03T15:12:56;3.33;;;3.10;;
920;SDS011;447;51.332;6.778;2022-09-03T15:21:02;3.20;;;3.00;;
920;SDS011;447;51.332;6.778;2022-09-03T15:34:47;3.43;;;3.13;;
920;SDS011;447;51.332;6.778;2022-09-03T15:37:42;3.13;;;2.93;;
920;SDS011;447;51.332;6.778;2022-09-03T15:42:45;4.17;;;3.80;;
920;SDS011;447;51.332;6.778;2022-09-03T15:45:33;3.20;;;3.00;;
920;SDS011;447;51.332;6.778;2022-09-03T15:53:44;3.73;;;3.43;;
920;SDS011;447;51.332;6.778;2022-09-03T15:58:54;3.50;;;3.30;;
920;SDS011;447;51.332;6.778;2022-09-03T16:01:26;2.90;;;2.70;;
920;SDS011;447;51.332;6.778;2022-09-03T16:15:21;3.00;;;2.80;;
920;SDS011;447;51.332;6.778;2022-09-03T16:23:04;3.63;;;3.33;;
920;SDS011;447;51.332;6.778;2022-09-03T16:28:17;2.90;;;2.70;;
920;SDS011;447;51.332;6.778;2022-09-03T16:38:51;3.23;;;2.97;;
920;SDS011;447;51.332;6.778;2022-09-03T16:44:21;3.10;;;2.90;;
920;SDS011;447;51.332;6.778;2022-09-03T16:47:06;3.33;;;3.13;;
920;SDS011;447;51.332;6.778;2022-09-03T16:52:48;2.80;;;2.60;;
920;SDS011;447;51.332;6.778;2022-09-03T16:55:34;3.23;;;3.03;;
920;SDS011;447;51.332;6.778;2022-09-03T16:58:20;3.27;;;2.97;;
920;SDS011;447;51.332;6.778;2022-09-03T17:03:56;3.00;;;2.80;;
920;SDS011;447;51.332;6.778;2022-09-03T17:20:50;3.00;;;2.80;;
920;SDS011;447;51.332;6.778;2022-09-03T17:31:48;3.33;;;3.07;;
920;SDS011;447;51.332;6.778;2022-09-03T17:48:50;3.53;;;3.27;;
920;SDS011;447;51.332;6.778;2022-09-03T18:07:29;3.60;;;3.30;;
920;SDS011;447;51.332;6.778;2022-09-03T18:16:03;3.30;;;3.00;;
920;SDS011;447;51.332;6.778;2022-09-03T18:18:44;3.20;;;2.90;;
920;SDS011;447;51.332;6.778;2022-09-03T18:21:24;3.40;;;3.10;;
920;SDS011;447;51.332;6.778;2022-09-03T18:27:37;3.90;;;3.50;;
920;SDS011;447;51.332;6.778;2022-09-03T18:30:23;3.43;;;3.23;;
920;SDS011;447;51.332;6.778;2022-09-03T18:33:13;3.10;;;2.83;;
920;SDS011;447;51.332;6.778;2022-09-03T18:36:09;3.20;;;2.90;;
920;SDS011;447;51.332;6.778;2022-09-03T18:42:03;3.50;;;3.30;;
920;SDS011;447;51.332;6.778;2022-09-03T18:45:20;3.37;;;2.87;;
920;SDS011;447;51.332;6.778;2022-09-03T18:49:01;2.87;;;2.67;;
920;SDS011;447;51.332;6.778;2022-09-03T18:55:08;3.00;;;2.80;;
920;SDS011;447;51.332;6.778;2022-09-03T19:01:13;3.00;;;2.80;;
920;SDS011;447;51.332;6.778;2022-09-03T19:04:23;3.53;;;3.23;;
920;SDS011;447;51.332;6.778;2022-09-03T19:07:42;3.70;;;3.07;;
920;SDS011;447;51.332;6.778;2022-09-03T19:13:44;3.00;;;2.80;;
920;SDS011;447;51.332;6.778;2022-09-03T19:19:50;3.07;;;2.87;;
920;SDS011;447;51.332;6.778;2022-09-03T19:22:40;3.93;;;3.03;;
920;SDS011;447;51.332;6.778;2022-09-03T19:25:28;2.53;;;2.33;;
920;SDS011;447;51.332;6.778;2022-09-03T19:45:44;3.00;;;2.80;;
920;SDS011;447;51.332;6.778;2022-09-03T19:51:55;2.70;;;2.50;;
920;SDS011;447;51.332;6.778;2022-09-03T19:54:55;2.93;;;2.73;;
920;SDS011;447;51.332;6.778;2022-09-03T19:57:44;3.07;;;2.87;;
920;SDS011;447;51.332;6.778;2022-09-03T20:00:40;3.50;;;2.87;;
920;SDS011;447;51.332;6.778;2022-09-03T20:03:28;2.40;;;2.20;;
920;SDS011;447;51.332;6.778;2022-09-03T20:06:15;3.23;;;2.70;;
920;SDS011;447;51.332;6.778;2022-09-03T20:09:05;3.00;;;2.33;;
920;SDS011;447;51.332;6.778;2022-09-03T20:11:55;2.63;;;2.43;;
920;SDS011;447;51.332;6.778;2022-09-03T20:14:32;2.63;;;2.43;;
920;SDS011;447;51.332;6.778;2022-09-03T20:25:29;2.57;;;2.40;;
920;SDS011;447;51.332;6.778;2022-09-03T20:31:16;3.10;;;2.90;;
920;SDS011;447;51.332;6.778;2022-09-03T20:33:47;2.70;;;2.50;;
920;SDS011;447;51.332;6.778;2022-09-03T20:42:26;2.73;;;2.53;;
920;SDS011;447;51.332;6.778;2022-09-03T20:45:21;4.07;;;2.87;;
920;SDS011;447;51.332;6.778;2022-09-03T20:53:22;2.80;;;2.60;;
920;SDS011;447;51.332;6.778;2022-09-03T20:56:15;3.07;;;2.40;;
920;SDS011;447;51.332;6.778;2022-09-03T21:10:26;2.77;;;2.50;;
920;SDS011;447;51.332;6.778;2022-09-03T21:13:49;3.03;;;2.77;;
920;SDS011;447;51.332;6.778;2022-09-03T21:24:54;3.23;;;3.00;;
920;SDS011;447;51.332;6.778;2022-09-03T21:27:29;2.23;;;2.00;;
920;SDS011;447;51.332;6.778;2022-09-03T21:32:32;2.97;;;2.63;;
920;SDS011;447;51.332;6.778;2022-09-03T21:37:53;2.53;;;2.33;;
920;SDS011;447;51.332;6.778;2022-09-03T21:40:33;2.30;;;2.10;;
920;SDS011;447;51.332;6.778;2022-09-03T21:43:14;2.67;;;2.47;;
920;SDS011;447;51.332;6.778;2022-09-03T21:53:52;2.57;;;2.13;;
920;SDS011;447;51.332;6.778;2022-09-03T21:59:16;2.87;;;2.60;;
920;SDS011;447;51.332;6.778;2022-09-03T22:02:34;2.70;;;2.20;;
920;SDS011;447;51.332;6.778;2022-09-03T22:04:41;2.60;;;2.40;;
920;SDS011;447;51.332;6.778;2022-09-03T22:07:18;2.57;;;2.37;;
920;SDS011;447;51.332;6.778;2022-09-03T22:15:47;2.73;;;2.53;;
920;SDS011;447;51.332;6.778;2022-09-03T22:20:52;2.40;;;2.20;;
920;SDS011;447;51.332;6.778;2022-09-03T22:23:48;3.37;;;2.87;;
920;SDS011;447;51.332;6.778;2022-09-03T22:40:56;2.60;;;2.30;;
920;SDS011;447;51.332;6.778;2022-09-03T22:46:18;4.77;;;2.27;;
920;SDS011;447;51.332;6.778;2022-09-03T22:51:18;2.53;;;2.37;;
920;SDS011;447;51.332;6.778;2022-09-03T22:56:29;2.30;;;2.10;;
920;SDS011;447;51.332;6.778;2022-09-03T22:59:06;2.33;;;2.13;;
920;SDS011;447;51.332;6.778;2022-09-03T23:10:04;2.40;;;2.20;;
920;SDS011;447;51.332;6.778;2022-09-03T23:12:40;2.07;;;1.87;;
920;SDS011;447;51.332;6.778;2022-09-03T23:15:11;3.40;;;2.30;;
920;SDS011;447;51.332;6.778;2022-09-03T23:17:49;2.10;;;2.00;;
920;SDS011;447;51.332;6.778;2022-09-03T23:20:34;2.53;;;2.33;;
920;SDS011;447;51.332;6.778;2022-09-03T23:26:04;2.30;;;2.10;;
920;SDS011;447;51.332;6.778;2022-09-03T23:28:43;2.20;;;2.00;;
920;SDS011;447;51.332;6.778;2022-09-03T23:33:45;2.27;;;2.17;;
920;SDS011;447;51.332;6.778;2022-09-03T23:45:07;2.50;;;2.00;;
920;SDS011;447;51.332;6.778;2022-09-03T23:47:41;2.83;;;2.40;;
